Time;durP1;ratioP1;P1;durP2;ratioP2;P2;SDS_P1;SDS_P2;PMS_P1;PMS_P2;Temp;Humidity;BMP_temperature;BMP_pressure;BME280_temperature;BME280_humidity;BME280_pressure;Samples;Min_cycle;Max_cycle;Signal;HPM_P1;HPM_P2
2022/03/14 00:01:44;;;;;;;17.77;10.93;;;1.40;99.90;;;;;;5032048;28;20280;-69
2022/03/14 00:04:11;;;;;;;21.37;10.87;;;1.40;99.90;;;;;;5024766;28;20203;-69
2022/03/14 00:06:39;;;;;;;18.33;11.10;;;1.40;99.90;;;;;;5034931;28;20245;-69
2022/03/14 00:09:07;;;;;;;17.70;11.83;;;1.40;99.90;;;;;;5023223;28;20582;-68
2022/03/14 00:11:37;;;;;;;17.57;11.00;;;1.40;99.90;;;;;;5035113;28;20211;-69
2022/03/14 00:14:08;;;;;;;20.33;10.93;;;1.50;99.90;;;;;;5015997;28;20629;-69
2022/03/14 00:16:39;;;;;;;20.43;11.43;;;1.40;99.90;;;;;;5028652;28;20212;-69
2022/03/14 00:19:07;;;;;;;14.97;10.43;;;1.40;99.90;;;;;;5024275;28;20200;-68
2022/03/14 00:21:38;;;;;;;19.33;10.83;;;1.30;99.90;;;;;;5024852;28;20233;-68
2022/03/14 00:24:09;;;;;;;21.27;11.20;;;1.30;99.90;;;;;;5024146;28;20241;-68
2022/03/14 00:26:37;;;;;;;20.00;12.00;;;1.30;99.90;;;;;;5014923;28;20583;-69
2022/03/14 00:29:04;;;;;;;19.83;10.83;;;1.30;99.90;;;;;;5031613;28;20562;-68
2022/03/14 00:31:31;;;;;;;17.37;10.57;;;1.30;99.90;;;;;;5034023;28;20213;-68
2022/03/14 00:33:58;;;;;;;19.40;10.83;;;1.20;99.90;;;;;;5029863;28;20202;-69
2022/03/14 00:36:25;;;;;;;20.90;11.23;;;1.30;99.90;;;;;;5026897;28;20213;-68
2022/03/14 00:38:53;;;;;;;23.37;11.77;;;1.20;99.90;;;;;;5017637;28;20221;-68
2022/03/14 00:41:22;;;;;;;15.67;9.87;;;1.20;99.90;;;;;;5030595;28;20274;-68
2022/03/14 00:43:49;;;;;;;18.53;10.77;;;1.20;99.90;;;;;;5031387;28;20298;-68
2022/03/14 00:46:16;;;;;;;18.60;11.27;;;1.10;99.90;;;;;;5033332;28;20651;-68
2022/03/14 00:48:44;;;;;;;19.03;10.50;;;1.10;99.90;;;;;;5029459;28;20652;-68
2022/03/14 00:51:11;;;;;;;21.43;11.23;;;1.10;99.90;;;;;;5029386;28;20235;-67
2022/03/14 00:53:37;;;;;;;18.90;10.23;;;1.10;99.90;;;;;;5029445;28;20230;-69
2022/03/14 00:56:06;;;;;;;19.00;10.43;;;1.10;99.90;;;;;;5033600;28;20225;-68
2022/03/14 00:58:34;;;;;;;16.57;10.43;;;1.10;99.90;;;;;;5018665;28;20298;-68
2022/03/14 01:01:02;;;;;;;19.80;11.40;;;1.10;99.90;;;;;;5033943;28;20230;-68
2022/03/14 01:03:29;;;;;;;16.10;10.60;;;1.10;99.90;;;;;;5032394;28;20198;-68
2022/03/14 01:05:56;;;;;;;19.00;11.30;;;1.10;99.90;;;;;;5028463;28;20211;-68
2022/03/14 01:08:23;;;;;;;20.47;11.27;;;1.00;99.90;;;;;;5033789;28;20221;-68
2022/03/14 01:10:50;;;;;;;17.00;9.43;;;1.10;99.90;;;;;;5033335;28;20575;-67
2022/03/14 01:13:17;;;;;;;17.00;10.23;;;1.00;99.90;;;;;;5033357;28;20199;-67
2022/03/14 01:15:46;;;;;;;18.60;10.37;;;1.00;99.90;;;;;;5026823;28;20297;-68
2022/03/14 01:18:14;;;;;;;18.23;11.10;;;1.00;99.90;;;;;;5019521;28;20226;-68
2022/03/14 01:20:41;;;;;;;17.23;9.87;;;1.00;99.90;;;;;;5029892;28;20684;-68
2022/03/14 01:23:09;;;;;;;15.73;10.13;;;0.90;99.90;;;;;;5024642;28;20218;-68
2022/03/14 01:25:36;;;;;;;17.07;10.00;;;0.90;99.90;;;;;;5027907;28;20209;-69
2022/03/14 01:28:04;;;;;;;15.00;9.50;;;0.90;99.90;;;;;;5033246;28;20253;-68
2022/03/14 01:30:31;;;;;;;18.13;9.90;;;0.90;99.90;;;;;;5032940;28;20693;-68
2022/03/14 01:33:00;;;;;;;15.40;8.97;;;0.90;99.90;;;;;;5033101;28;20289;-68
2022/03/14 01:35:27;;;;;;;15.30;9.47;;;0.90;99.90;;;;;;5018243;28;20210;-67
2022/03/14 01:37:54;;;;;;;15.13;10.53;;;1.00;99.90;;;;;;5033872;28;20202;-68
2022/03/14 01:40:21;;;;;;;19.27;10.43;;;0.90;99.90;;;;;;5026394;28;20599;-69
2022/03/14 01:42:49;;;;;;;19.10;9.77;;;0.90;99.90;;;;;;5037382;28;20640;-68
2022/03/14 01:45:17;;;;;;;17.80;10.60;;;1.00;99.90;;;;;;5029646;28;20207;-68
2022/03/14 01:47:45;;;;;;;19.80;10.80;;;0.90;99.90;;;;;;5020465;28;20302;-68
2022/03/14 01:50:15;;;;;;;19.83;10.87;;;1.00;99.90;;;;;;5037769;28;20221;-68
2022/03/14 01:52:42;;;;;;;18.53;11.40;;;1.00;99.90;;;;;;5038562;28;20242;-68
2022/03/14 01:55:10;;;;;;;16.10;9.73;;;1.00;99.90;;;;;;5034544;28;20202;-67
2022/03/14 01:57:37;;;;;;;17.17;10.17;;;1.00;99.90;;;;;;5038304;28;20213;-68
2022/03/14 02:00:06;;;;;;;16.57;9.77;;;1.00;99.90;;;;;;5037531;28;20761;-68
2022/03/14 02:02:33;;;;;;;15.07;9.60;;;1.00;99.90;;;;;;5050138;28;20215;-70
2022/03/14 02:05:00;;;;;;;16.33;9.33;;;1.00;99.90;;;;;;5050305;28;20202;-70
2022/03/14 02:07:28;;;;;;;19.60;10.50;;;1.00;99.90;;;;;;5050784;28;20226;-70
2022/03/14 02:09:55;;;;;;;14.90;9.73;;;1.00;99.90;;;;;;5036959;28;20211;-70
2022/03/14 02:12:22;;;;;;;17.33;9.97;;;0.90;99.90;;;;;;5045921;28;20210;-70
2022/03/14 02:14:49;;;;;;;15.90;10.63;;;1.00;99.90;;;;;;5041297;28;20226;-70
2022/03/14 02:17:20;;;;;;;15.70;10.40;;;0.90;99.90;;;;;;5049613;28;20206;-71
2022/03/14 02:19:47;;;;;;;16.00;9.70;;;0.90;99.90;;;;;;5041914;28;20694;-70
2022/03/14 02:22:15;;;;;;;16.07;9.77;;;1.00;99.90;;;;;;5039390;28;20272;-70
2022/03/14 02:24:43;;;;;;;16.23;10.30;;;0.90;99.90;;;;;;5041275;28;20851;-70
2022/03/14 02:27:11;;;;;;;17.50;9.90;;;1.00;99.90;;;;;;5048096;28;20198;-70
2022/03/14 02:29:39;;;;;;;18.20;10.90;;;1.00;99.90;;;;;;5047346;28;20229;-70
2022/03/14 02:32:11;;;;;;;16.60;10.40;;;0.90;99.90;;;;;;5038198;28;20223;-71
2022/03/14 02:34:38;;;;;;;15.53;9.30;;;0.80;99.90;;;;;;5044037;28;20215;-70
2022/03/14 02:37:05;;;;;;;18.17;9.63;;;0.90;99.90;;;;;;5033993;28;20235;-71
2022/03/14 02:39:34;;;;;;;14.50;9.13;;;0.90;99.90;;;;;;5047410;28;20269;-70
2022/03/14 02:42:02;;;;;;;16.27;9.83;;;0.80;99.90;;;;;;5047788;28;20203;-71
2022/03/14 02:44:29;;;;;;;14.17;9.43;;;0.80;99.90;;;;;;5048646;28;20207;-71
2022/03/14 02:46:56;;;;;;;14.17;9.40;;;0.80;99.90;;;;;;5048647;28;20225;-71
2022/03/14 02:49:22;;;;;;;18.73;9.33;;;0.80;99.90;;;;;;5045710;28;20269;-70
2022/03/14 02:51:50;;;;;;;18.67;9.67;;;0.80;99.90;;;;;;5037439;28;20230;-71
2022/03/14 02:54:17;;;;;;;16.13;9.83;;;0.70;99.90;;;;;;5047959;28;20268;-70
2022/03/14 02:56:45;;;;;;;16.37;10.47;;;0.80;99.90;;;;;;5047708;28;20211;-70
2022/03/14 02:59:12;;;;;;;17.17;9.63;;;0.80;99.90;;;;;;5048372;28;20206;-70
2022/03/14 03:01:39;;;;;;;17.70;9.93;;;0.80;99.90;;;;;;5047802;28;20214;-70
2022/03/14 03:04:06;;;;;;;15.50;9.33;;;0.70;99.90;;;;;;5048042;28;20203;-70
2022/03/14 03:06:33;;;;;;;18.80;10.37;;;1.40;99.90;;;;;;5035339;28;20219;-71
2022/03/14 03:09:03;;;;;;;14.70;9.37;;;0.70;99.90;;;;;;5037770;28;20222;-70
2022/03/14 03:11:31;;;;;;;15.53;9.50;;;0.80;99.90;;;;;;5047038;28;20258;-70
2022/03/14 03:14:00;;;;;;;13.13;8.97;;;0.70;99.90;;;;;;5034856;28;20226;-71
2022/03/14 03:16:27;;;;;;;16.83;10.00;;;0.70;99.90;;;;;;5047516;28;20207;-70
2022/03/14 03:18:55;;;;;;;16.50;9.83;;;0.70;99.90;;;;;;5048271;28;20207;-71
2022/03/14 03:21:22;;;;;;;14.27;9.90;;;0.60;99.90;;;;;;5034782;28;20235;-70
2022/03/14 03:23:49;;;;;;;13.50;8.83;;;0.70;99.90;;;;;;5029250;28;20243;-70
2022/03/14 03:26:16;;;;;;;16.67;9.17;;;0.60;99.90;;;;;;5035956;28;20651;-70
2022/03/14 03:28:43;;;;;;;15.37;10.17;;;0.60;99.90;;;;;;5038253;28;20222;-71
2022/03/14 03:31:16;;;;;;;14.03;9.00;;;0.60;99.90;;;;;;5032070;28;20219;-70
2022/03/14 03:33:44;;;;;;;13.83;8.73;;;0.60;99.90;;;;;;5043430;28;20206;-71
2022/03/14 03:36:11;;;;;;;15.70;9.90;;;0.80;99.90;;;;;;5044572;28;20222;-70
2022/03/14 03:38:38;;;;;;;16.23;10.53;;;0.60;99.90;;;;;;5033578;28;20243;-71
2022/03/14 03:41:05;;;;;;;16.63;10.50;;;0.60;99.90;;;;;;5033070;28;20234;-71
2022/03/14 03:43:32;;;;;;;17.07;10.20;;;0.60;99.90;;;;;;5035840;28;20210;-70
2022/03/14 03:45:59;;;;;;;17.57;9.60;;;0.50;99.90;;;;;;5045212;28;20207;-70
2022/03/14 03:48:28;;;;;;;18.50;10.67;;;0.50;99.90;;;;;;5043563;28;20253;-71
2022/03/14 03:50:55;;;;;;;18.07;10.80;;;0.50;99.90;;;;;;5036193;28;20215;-70
2022/03/14 03:53:22;;;;;;;13.93;9.50;;;1.20;99.90;;;;;;5025480;28;20751;-71
2022/03/14 03:55:49;;;;;;;18.50;9.63;;;0.50;99.90;;;;;;5027754;28;20280;-70
2022/03/14 03:58:16;;;;;;;17.00;10.07;;;0.50;99.90;;;;;;5028919;28;20267;-70
2022/03/14 04:00:43;;;;;;;14.97;9.83;;;1.10;99.90;;;;;;5036796;28;20286;-71
2022/03/14 04:03:10;;;;;;;17.33;10.20;;;0.50;99.90;;;;;;5040933;28;20234;-70
2022/03/14 04:05:39;;;;;;;18.87;10.03;;;0.50;99.90;;;;;;5042706;28;20576;-70
2022/03/14 04:08:10;;;;;;;16.53;9.43;;;0.50;99.90;;;;;;5040439;28;20242;-71
2022/03/14 04:10:37;;;;;;;17.63;10.50;;;0.40;99.90;;;;;;5037772;28;20321;-71
2022/03/14 04:13:06;;;;;;;18.83;10.37;;;0.40;99.90;;;;;;5034652;28;20230;-70
2022/03/14 04:15:49;;;;;;;19.80;10.97;;;0.40;99.90;;;;;;5028806;28;20211;-71
2022/03/14 04:18:18;;;;;;;14.73;9.27;;;0.40;99.90;;;;;;5025869;28;20204;-70
2022/03/14 04:20:46;;;;;;;15.37;9.57;;;0.40;99.90;;;;;;5041773;28;20218;-71
2022/03/14 04:23:13;;;;;;;20.23;10.87;;;0.40;99.90;;;;;;5046135;28;20837;-71
2022/03/14 04:25:41;;;;;;;16.70;10.33;;;0.30;99.90;;;;;;5044263;28;20217;-71
2022/03/14 04:28:08;;;;;;;16.40;10.17;;;0.30;99.90;;;;;;5046212;28;20214;-71
2022/03/14 04:30:35;;;;;;;19.47;11.37;;;0.40;99.90;;;;;;5042595;28;20211;-71
2022/03/14 04:33:02;;;;;;;16.27;10.43;;;0.30;99.90;;;;;;5038039;28;20207;-70
2022/03/14 04:35:29;;;;;;;16.60;10.03;;;0.30;99.90;;;;;;5039735;28;20207;-71
2022/03/14 04:37:58;;;;;;;16.00;10.20;;;0.30;99.90;;;;;;5043107;28;20207;-70
2022/03/14 04:40:24;;;;;;;14.40;9.17;;;0.30;99.90;;;;;;5037690;28;20708;-71
2022/03/14 04:42:52;;;;;;;17.03;9.90;;;0.30;99.90;;;;;;5038507;28;20191;-71
2022/03/14 04:45:18;;;;;;;14.17;9.83;;;0.30;99.90;;;;;;5039589;28;20219;-71
2022/03/14 04:47:45;;;;;;;19.70;10.43;;;0.50;99.90;;;;;;5041414;28;20211;-71
2022/03/14 04:50:14;;;;;;;19.10;10.57;;;0.70;99.90;;;;;;5035248;28;20199;-71
2022/03/14 04:52:41;;;;;;;16.30;10.37;;;0.30;99.90;;;;;;5038492;28;20258;-71
2022/03/14 04:55:10;;;;;;;19.03;10.60;;;0.30;99.90;;;;;;5042566;28;20296;-71
2022/03/14 04:57:37;;;;;;;16.20;10.33;;;0.30;99.90;;;;;;5045474;28;20238;-70
2022/03/14 05:00:08;;;;;;;17.07;10.10;;;0.30;99.90;;;;;;5045079;28;20578;-72
2022/03/14 05:02:35;;;;;;;18.50;10.27;;;0.30;99.90;;;;;;5025653;28;20207;-71
2022/03/14 05:05:02;;;;;;;17.53;10.43;;;0.20;99.90;;;;;;5046492;28;20214;-70
2022/03/14 05:07:29;;;;;;;17.77;10.40;;;0.30;99.90;;;;;;5046367;28;20267;-72
2022/03/14 05:09:56;;;;;;;16.40;9.47;;;0.20;99.90;;;;;;5039850;28;20203;-71
2022/03/14 05:12:24;;;;;;;18.47;10.93;;;0.30;99.90;;;;;;5030135;28;20253;-70
2022/03/14 05:14:52;;;;;;;15.30;10.10;;;0.30;99.90;;;;;;5044467;28;20241;-71
2022/03/14 05:17:19;;;;;;;18.63;10.17;;;0.30;99.90;;;;;;5033990;28;20203;-70
2022/03/14 05:19:46;;;;;;;17.80;10.33;;;0.30;99.90;;;;;;5035358;28;20652;-71
2022/03/14 05:22:13;;;;;;;17.10;9.50;;;0.30;99.90;;;;;;5041506;28;20226;-71
2022/03/14 05:24:40;;;;;;;17.93;10.73;;;0.30;99.90;;;;;;5029650;28;20210;-70
2022/03/14 05:27:08;;;;;;;16.37;10.30;;;0.30;99.90;;;;;;5044971;28;20211;-70
2022/03/14 05:29:36;;;;;;;14.50;9.40;;;0.40;99.90;;;;;;5045277;28;20226;-71
2022/03/14 05:32:04;;;;;;;19.67;11.20;;;0.40;99.90;;;;;;5045143;28;20230;-70
2022/03/14 05:34:31;;;;;;;16.87;10.17;;;0.40;99.90;;;;;;5043435;28;20203;-70
2022/03/14 05:36:59;;;;;;;17.73;10.10;;;0.40;99.90;;;;;;5035067;28;20215;-70
2022/03/14 05:39:26;;;;;;;18.33;10.50;;;0.40;99.90;;;;;;5030566;28;20722;-70
2022/03/14 05:41:52;;;;;;;16.40;10.13;;;0.40;99.90;;;;;;5037895;28;20544;-70
2022/03/14 05:44:21;;;;;;;17.00;10.00;;;0.40;99.90;;;;;;5027151;28;20237;-71
2022/03/14 05:46:49;;;;;;;15.87;9.50;;;1.10;99.90;;;;;;5043561;28;20217;-71
2022/03/14 05:49:16;;;;;;;20.30;10.37;;;0.50;99.90;;;;;;5043864;28;20266;-71
2022/03/14 05:51:43;;;;;;;16.07;10.10;;;0.60;99.90;;;;;;5044671;28;20233;-71
2022/03/14 05:54:10;;;;;;;15.97;9.67;;;0.60;99.90;;;;;;5043992;28;20242;-70
2022/03/14 05:56:37;;;;;;;18.60;10.33;;;0.70;99.90;;;;;;5031561;28;20245;-70
2022/03/14 05:59:04;;;;;;;17.00;9.87;;;0.70;99.90;;;;;;5044474;28;20301;-71
2022/03/14 06:01:31;;;;;;;17.47;9.87;;;0.90;99.90;;;;;;5046575;28;20203;-71
2022/03/14 06:04:01;;;;;;;14.57;10.10;;;1.00;99.90;;;;;;5043588;28;20244;-71
2022/03/14 06:06:28;;;;;;;17.97;10.20;;;1.10;99.90;;;;;;5043695;28;20206;-71
2022/03/14 06:08:55;;;;;;;18.67;9.70;;;1.40;99.90;;;;;;5040188;28;20247;-71
2022/03/14 06:11:22;;;;;;;17.47;10.50;;;1.70;99.90;;;;;;5033853;28;20289;-72
2022/03/14 06:13:49;;;;;;;18.23;10.43;;;1.70;99.90;;;;;;5031019;28;20209;-72
2022/03/14 06:16:16;;;;;;;19.63;10.57;;;1.80;99.90;;;;;;5042065;28;20241;-71
2022/03/14 06:18:43;;;;;;;17.47;9.53;;;1.80;99.90;;;;;;5045224;28;20725;-69
2022/03/14 06:21:11;;;;;;;17.50;10.23;;;1.70;99.90;;;;;;5046243;28;20245;-70
2022/03/14 06:23:38;;;;;;;14.00;10.13;;;1.70;99.90;;;;;;5049055;28;20221;-71
2022/03/14 06:26:05;;;;;;;18.17;9.50;;;1.70;99.90;;;;;;5050891;28;20236;-71
2022/03/14 06:28:32;;;;;;;14.27;9.97;;;1.60;99.90;;;;;;5051009;28;20209;-70
2022/03/14 06:30:59;;;;;;;19.80;10.97;;;1.70;99.90;;;;;;5042842;28;20206;-71
2022/03/14 06:33:26;;;;;;;13.73;10.30;;;1.70;99.90;;;;;;5050442;28;20233;-71
2022/03/14 06:35:53;;;;;;;15.03;9.50;;;1.80;99.90;;;;;;5037235;28;20210;-71
2022/03/14 06:38:21;;;;;;;15.53;10.37;;;1.90;99.90;;;;;;5042517;28;20257;-72
2022/03/14 06:40:48;;;;;;;19.53;10.87;;;1.90;99.90;;;;;;5036323;28;20227;-71
2022/03/14 06:43:17;;;;;;;16.77;9.80;;;1.90;99.90;;;;;;5049319;28;20234;-71
2022/03/14 06:45:45;;;;;;;18.43;10.30;;;2.00;99.90;;;;;;5038047;28;20203;-71
2022/03/14 06:48:13;;;;;;;14.43;9.50;;;2.10;99.90;;;;;;5035187;28;20222;-71
2022/03/14 06:50:40;;;;;;;18.93;10.43;;;2.20;99.90;;;;;;5050090;28;20230;-71
2022/03/14 06:53:07;;;;;;;16.40;10.47;;;2.60;99.90;;;;;;5039106;28;20657;-71
2022/03/14 06:55:35;;;;;;;16.50;10.07;;;3.00;99.90;;;;;;5040983;28;20243;-72
2022/03/14 06:58:03;;;;;;;17.57;10.20;;;3.30;99.90;;;;;;5035035;28;20211;-71
2022/03/14 07:00:30;;;;;;;17.70;10.17;;;3.30;98.90;;;;;;5028646;28;20680;-72
2022/03/14 07:02:57;;;;;;;17.37;10.03;;;3.20;98.10;;;;;;5034142;28;20203;-72
2022/03/14 07:05:26;;;;;;;17.73;10.10;;;3.10;98.00;;;;;;5041166;28;20205;-71
2022/03/14 07:07:53;;;;;;;19.00;10.87;;;3.00;97.90;;;;;;5028898;28;20199;-72
2022/03/14 07:10:21;;;;;;;14.53;9.90;;;3.00;97.90;;;;;;5027911;28;20211;-71
2022/03/14 07:12:50;;;;;;;18.10;10.17;;;3.00;97.90;;;;;;5026825;28;20223;-71
2022/03/14 07:15:20;;;;;;;16.80;10.50;;;3.00;97.90;;;;;;5019366;28;20211;-72
2022/03/14 07:17:48;;;;;;;18.80;10.63;;;3.00;97.80;;;;;;5023098;28;20675;-72
2022/03/14 07:20:17;;;;;;;17.80;11.00;;;2.90;97.70;;;;;;5028361;28;20297;-73
2022/03/14 07:22:55;;;;;;;17.63;11.00;;;3.00;97.90;;;;;;5029921;28;20225;-72
2022/03/14 07:25:24;;;;;;;16.67;10.43;;;3.10;97.60;;;;;;5033935;28;20237;-71
2022/03/14 07:27:54;;;;;;;16.00;9.87;;;3.10;97.50;;;;;;5024145;28;20331;-70
2022/03/14 07:30:21;;;;;;;18.03;10.43;;;3.30;97.50;;;;;;5026142;28;20302;-73
2022/03/14 07:32:48;;;;;;;18.40;10.87;;;3.50;97.60;;;;;;5030089;28;20752;-74
2022/03/14 07:35:16;;;;;;;17.53;11.13;;;3.70;97.30;;;;;;5028822;28;20242;-74
2022/03/14 07:37:44;;;;;;;18.97;10.53;;;4.00;96.70;;;;;;5023346;28;20217;-72
2022/03/14 07:40:12;;;;;;;20.53;11.00;;;4.10;96.20;;;;;;5031131;28;20784;-74
2022/03/14 07:42:41;;;;;;;18.07;11.77;;;4.20;95.40;;;;;;5032403;28;20210;-73
2022/03/14 07:45:10;;;;;;;14.87;9.93;;;4.30;95.00;;;;;;5039567;28;20217;-74
2022/03/14 07:47:39;;;;;;;16.53;11.17;;;4.50;94.60;;;;;;5026568;28;20207;-74
2022/03/14 07:50:08;;;;;;;17.77;11.07;;;4.60;93.90;;;;;;5032909;28;20218;-73
2022/03/14 07:52:36;;;;;;;16.60;11.10;;;4.70;93.40;;;;;;5033461;28;20227;-73
2022/03/14 07:55:05;;;;;;;17.93;11.40;;;4.90;93.10;;;;;;5034118;28;20207;-74
2022/03/14 07:57:34;;;;;;;17.60;11.30;;;5.00;92.70;;;;;;5022308;28;20248;-73
2022/03/14 08:00:01;;;;;;;21.20;11.63;;;5.10;92.30;;;;;;5030014;28;20265;-71
2022/03/14 08:02:29;;;;;;;18.00;11.03;;;5.30;91.70;;;;;;5034110;28;20633;-73
2022/03/14 08:04:56;;;;;;;17.53;11.33;;;5.40;91.30;;;;;;5035814;28;20238;-74
2022/03/14 08:07:26;;;;;;;16.83;10.77;;;5.60;90.60;;;;;;5029181;28;20690;-75
2022/03/14 08:09:54;;;;;;;18.57;11.53;;;5.70;90.20;;;;;;5030477;28;20206;-74
2022/03/14 08:12:22;;;;;;;16.77;10.97;;;5.80;89.20;;;;;;5017647;28;20223;-73
2022/03/14 08:14:50;;;;;;;18.43;11.30;;;6.00;88.50;;;;;;5022326;28;20210;-73
2022/03/14 08:17:18;;;;;;;18.13;11.73;;;6.20;87.60;;;;;;5033938;28;20298;-74
2022/03/14 08:19:46;;;;;;;22.63;11.63;;;6.40;86.70;;;;;;5024901;28;20206;-74
2022/03/14 08:22:13;;;;;;;14.87;10.63;;;6.50;84.30;;;;;;5021869;28;20258;-73
2022/03/14 08:24:40;;;;;;;21.97;11.97;;;6.50;82.00;;;;;;5029509;28;20245;-72
2022/03/14 08:27:08;;;;;;;19.57;12.80;;;6.60;80.70;;;;;;5021561;28;20230;-72
2022/03/14 08:29:35;;;;;;;20.63;12.27;;;6.60;80.20;;;;;;5033481;28;20270;-72
2022/03/14 08:32:02;;;;;;;19.17;12.73;;;6.70;80.20;;;;;;5033886;28;20703;-73
2022/03/14 08:34:29;;;;;;;19.93;13.00;;;6.80;79.20;;;;;;5021468;28;20694;-74
2022/03/14 08:36:57;;;;;;;18.37;12.00;;;6.90;78.10;;;;;;5029022;28;20289;-74
2022/03/14 08:39:25;;;;;;;21.20;12.37;;;7.00;76.60;;;;;;5026392;28;20230;-72
2022/03/14 08:41:53;;;;;;;21.57;12.53;;;7.10;76.10;;;;;;5033487;28;20285;-74
2022/03/14 08:44:19;;;;;;;19.07;12.77;;;7.30;75.90;;;;;;5029708;28;20203;-68
2022/03/14 08:46:46;;;;;;;19.17;13.30;;;7.50;74.30;;;;;;5026221;28;20214;-70
2022/03/14 08:49:13;;;;;;;21.67;15.00;;;7.60;73.40;;;;;;5023656;28;20483;-74
2022/03/14 08:51:40;;;;;;;19.57;13.80;;;7.80;72.40;;;;;;5022953;28;20290;-71
2022/03/14 08:54:08;;;;;;;18.77;13.77;;;7.90;70.80;;;;;;5027233;28;20272;-70
2022/03/14 08:56:37;;;;;;;22.93;14.47;;;8.10;69.80;;;;;;5014608;28;20239;-69
2022/03/14 08:59:04;;;;;;;19.37;13.60;;;8.30;69.30;;;;;;5015244;28;20219;-70
2022/03/14 09:01:33;;;;;;;21.83;14.05;;;8.60;69.40;;;;;;5030906;28;20445;-70
2022/03/14 09:04:01;;;;;;;24.13;15.53;;;8.70;67.10;;;;;;5032983;28;20473;-71
2022/03/14 09:06:28;;;;;;;22.67;13.83;;;9.00;64.90;;;;;;5032720;28;20553;-70
2022/03/14 09:08:57;;;;;;;21.27;14.70;;;9.20;64.60;;;;;;5020041;28;21027;-71
2022/03/14 09:11:26;;;;;;;19.13;13.43;;;9.30;62.80;;;;;;5026310;28;20297;-69
2022/03/14 09:13:53;;;;;;;21.85;16.45;;;9.50;62.50;;;;;;5032263;28;20453;-70
2022/03/14 09:16:20;;;;;;;23.10;15.60;;;9.70;60.60;;;;;;5029686;28;20663;-69
2022/03/14 09:18:47;;;;;;;20.33;14.13;;;9.80;62.70;;;;;;5032262;28;20222;-72
2022/03/14 09:21:14;;;;;;;21.07;14.00;;;10.60;60.90;;;;;;5021284;28;20227;-70
2022/03/14 09:23:41;;;;;;;18.90;13.50;;;12.70;60.10;;;;;;5026194;28;20202;-71
2022/03/14 09:26:08;;;;;;;20.10;13.00;;;16.10;55.80;;;;;;5028359;28;20269;-71
2022/03/14 09:28:39;;;;;;;20.02;13.98;;;19.80;44.10;;;;;;5022399;28;20198;-72
2022/03/14 09:31:06;;;;;;;18.88;13.85;;;23.00;36.70;;;;;;5022470;28;20639;-72
2022/03/14 09:33:35;;;;;;;20.05;15.15;;;25.60;32.40;;;;;;5021394;28;20781;-72
2022/03/14 09:36:02;;;;;;;20.70;15.73;;;27.40;29.40;;;;;;5027592;28;20632;-72
2022/03/14 09:38:29;;;;;;;19.73;14.52;;;28.60;28.20;;;;;;5028965;28;20210;-73
2022/03/14 09:40:57;;;;;;;17.20;14.15;;;29.50;26.60;;;;;;5026293;28;20242;-72
2022/03/14 09:43:26;;;;;;;18.45;14.35;;;30.50;25.80;;;;;;5022990;28;20246;-71
2022/03/14 09:45:54;;;;;;;16.63;14.10;;;31.60;25.00;;;;;;5031137;28;20238;-72
2022/03/14 09:48:22;;;;;;;17.38;14.07;;;32.50;23.70;;;;;;5025143;28;20243;-72
2022/03/14 09:50:49;;;;;;;21.23;14.25;;;33.60;23.20;;;;;;5014321;28;20231;-72
2022/03/14 09:53:18;;;;;;;19.25;14.18;;;33.90;22.20;;;;;;5023687;28;20262;-72
2022/03/14 09:55:47;;;;;;;17.90;14.52;;;33.30;21.90;;;;;;5023663;28;20207;-72
2022/03/14 09:58:15;;;;;;;16.45;14.63;;;32.90;22.00;;;;;;5025752;28;20206;-71
2022/03/14 10:00:43;;;;;;;21.10;14.60;;;32.60;21.90;;;;;;5027971;28;20241;-71
2022/03/14 10:03:13;;;;;;;19.33;14.25;;;32.70;22.00;;;;;;5032369;28;20651;-71
2022/03/14 10:05:40;;;;;;;20.52;16.05;;;32.60;22.00;;;;;;5033971;28;20206;-70
2022/03/14 10:08:07;;;;;;;18.60;14.25;;;32.60;21.80;;;;;;5022923;28;20234;-71
2022/03/14 10:10:37;;;;;;;16.27;14.50;;;32.90;21.80;;;;;;5021450;28;20207;-70
2022/03/14 10:13:05;;;;;;;18.00;14.02;;;33.40;21.40;;;;;;5031349;28;20265;-70
2022/03/14 10:15:37;;;;;;;16.65;13.82;;;34.00;21.00;;;;;;5032184;28;20213;-71
2022/03/14 10:18:11;;;;;;;19.90;14.32;;;34.10;20.70;;;;;;5021674;28;20334;-71
2022/03/14 10:20:41;;;;;;;17.00;14.70;;;34.40;20.70;;;;;;5021954;28;20271;-69
2022/03/14 10:23:08;;;;;;;19.15;15.07;;;34.50;20.40;;;;;;5027687;28;20215;-71
2022/03/14 10:25:43;;;;;;;18.00;14.88;;;34.90;20.40;;;;;;5019657;28;20209;-71
2022/03/14 10:28:10;;;;;;;18.95;14.20;;;35.10;20.20;;;;;;5028035;28;20218;-72
2022/03/14 10:30:37;;;;;;;15.98;13.40;;;35.10;20.00;;;;;;5033875;28;20257;-74
2022/03/14 10:33:15;;;;;;;16.85;14.23;;;34.80;19.80;;;;;;5032208;28;20219;-72
2022/03/14 10:35:44;;;;;;;17.40;13.95;;;35.20;20.30;;;;;;5031236;28;20291;-72
2022/03/14 10:38:13;;;;;;;19.00;14.35;;;35.50;19.70;;;;;;5034860;28;20275;-73
2022/03/14 10:40:41;;;;;;;19.13;13.63;;;35.00;19.70;;;;;;5033850;28;20288;-73
2022/03/14 10:43:20;;;;;;;16.42;12.93;;;34.70;20.00;;;;;;5026984;28;20241;-71
2022/03/14 10:45:47;;;;;;;16.00;13.35;;;35.30;20.20;;;;;;5029977;28;20206;-72
2022/03/14 10:48:16;;;;;;;16.35;13.15;;;36.40;19.50;;;;;;5032472;28;20297;-73
2022/03/14 10:50:43;;;;;;;15.90;13.13;;;36.70;19.40;;;;;;5030296;28;20270;-72
2022/03/14 10:53:12;;;;;;;15.55;12.68;;;37.20;19.00;;;;;;5028144;28;20688;-72
2022/03/14 10:55:41;;;;;;;16.10;13.30;;;37.50;19.30;;;;;;5028259;28;20313;-71
2022/03/14 10:58:10;;;;;;;15.70;13.48;;;37.50;18.60;;;;;;5034709;28;20215;-72
2022/03/14 11:00:48;;;;;;;16.05;14.35;;;37.40;18.60;;;;;;5030910;28;20257;-72
2022/03/14 11:03:25;;;;;;;14.30;12.80;;;37.10;18.70;;;;;;5027331;28;20210;-72
2022/03/14 11:05:53;;;;;;;17.58;15.70;;;36.80;18.70;;;;;;5025289;28;20238;-71
2022/03/14 11:08:42;;;;;;;14.85;12.45;;;36.50;18.90;;;;;;5033882;28;20203;-74
2022/03/14 11:11:11;;;;;;;16.95;13.32;;;36.30;19.10;;;;;;5021170;28;20225;-74
2022/03/14 11:13:40;;;;;;;14.45;12.82;;;36.20;18.80;;;;;;5029651;28;20598;-73
2022/03/14 11:16:11;;;;;;;14.48;11.90;;;36.30;19.00;;;;;;5024337;28;20207;-73
2022/03/14 11:18:39;;;;;;;15.50;12.90;;;36.20;18.90;;;;;;5028142;28;20242;-71
2022/03/14 11:21:08;;;;;;;12.95;11.60;;;36.30;18.90;;;;;;5029454;28;20254;-73
2022/03/14 11:23:35;;;;;;;15.07;12.43;;;35.90;18.90;;;;;;5025878;28;20565;-72
2022/03/14 11:26:03;;;;;;;14.75;12.70;;;35.70;19.30;;;;;;5017904;28;20817;-72
2022/03/14 11:28:35;;;;;;;13.85;12.45;;;35.90;19.10;;;;;;5029767;28;20249;-72
2022/03/14 11:31:03;;;;;;;12.93;11.57;;;36.30;19.00;;;;;;5018400;28;20245;-70
2022/03/14 11:33:31;;;;;;;14.98;11.10;;;36.30;18.80;;;;;;5031120;28;20597;-71
2022/03/14 11:36:00;;;;;;;12.82;11.02;;;35.90;18.80;;;;;;5034760;28;20290;-71
2022/03/14 11:38:28;;;;;;;13.23;10.80;;;35.60;18.90;;;;;;5023157;28;20278;-71
2022/03/14 11:40:55;;;;;;;17.05;12.43;;;35.60;19.30;;;;;;5015732;28;20279;-72
2022/03/14 11:43:22;;;;;;;14.27;11.90;;;35.90;19.30;;;;;;5020721;28;20672;-70
2022/03/14 11:45:50;;;;;;;13.02;10.82;;;36.60;19.00;;;;;;5023627;28;20211;-70
2022/03/14 11:48:18;;;;;;;12.02;10.73;;;37.30;18.50;;;;;;5032406;28;20213;-71
2022/03/14 11:50:47;;;;;;;12.25;10.95;;;37.60;18.20;;;;;;5024631;28;20637;-71
2022/03/14 11:53:24;;;;;;;11.55;10.45;;;37.50;18.10;;;;;;5033881;28;20234;-71
2022/03/14 11:55:55;;;;;;;12.25;10.95;;;38.30;18.30;;;;;;5030682;28;20216;-69
2022/03/14 11:58:36;;;;;;;13.60;11.50;;;39.30;17.70;;;;;;5024011;28;20234;-72
2022/03/14 12:01:16;;;;;;;11.50;10.30;;;39.70;17.60;;;;;;5016010;28;20548;-72
2022/03/14 12:03:46;;;;;;;12.82;11.48;;;39.60;17.40;;;;;;5029141;28;20209;-72
2022/03/14 12:06:13;;;;;;;10.98;9.90;;;38.60;17.70;;;;;;5033245;28;20290;-72
2022/03/14 12:09:02;;;;;;;14.57;11.60;;;37.40;18.00;;;;;;5031055;28;20221;-71
2022/03/14 12:11:42;;;;;;;11.73;9.75;;;37.00;18.70;;;;;;5034389;28;20317;-71
2022/03/14 12:14:13;;;;;;;12.32;10.70;;;36.80;18.50;;;;;;5034384;28;20312;-72
2022/03/14 12:16:42;;;;;;;12.65;10.57;;;36.80;18.20;;;;;;5029523;28;20209;-71
2022/03/14 12:19:30;;;;;;;11.57;9.98;;;36.10;18.20;;;;;;5028946;28;20294;-72
2022/03/14 12:21:58;;;;;;;11.80;10.57;;;35.20;18.50;;;;;;5023432;28;20249;-69
2022/03/14 12:24:49;;;;;;;13.20;10.55;;;34.60;19.00;;;;;;5028804;28;20203;-69
2022/03/14 12:27:18;;;;;;;13.45;11.63;;;34.70;19.40;;;;;;5030904;28;20207;-69
2022/03/14 12:29:46;;;;;;;12.90;10.40;;;34.40;19.20;;;;;;5028514;28;20289;-69
2022/03/14 12:32:34;;;;;;;11.55;10.32;;;34.40;19.70;;;;;;5026708;28;20714;-69
2022/03/14 12:35:09;;;;;;;13.13;10.27;;;34.10;19.20;;;;;;5025202;28;20222;-70
2022/03/14 12:37:44;;;;;;;13.10;10.70;;;33.70;19.50;;;;;;5026399;28;20683;-68
2022/03/14 12:40:40;;;;;;;13.55;10.88;;;34.00;19.50;;;;;;5024150;28;20238;-69
2022/03/14 12:43:22;;;;;;;11.32;10.20;;;33.80;19.30;;;;;;5020245;28;20211;-69